Time;durP1;ratioP1;P1;durP2;ratioP2;P2;SDS_P1;SDS_P2;PMS_P1;PMS_P2;Temp;Humidity;BMP_temperature;BMP_pressure;BME280_temperature;BME280_humidity;BME280_pressure;Samples;Min_cycle;Max_cycle;Signal;HPM_P1;HPM_P2
2022/09/18 00:01:06;;;;;;;0.30;0.20;;;;;;;;;;5032804;28;20057;-62
2022/09/18 00:03:31;;;;;;;0.10;0.10;;;;;;;;;;5038055;28;20444;-63
2022/09/18 00:05:56;;;;;;;0.30;0.30;;;;;;;;;;5034209;28;20563;-58
2022/09/18 00:08:21;;;;;;;0.10;0.10;;;;;;;;;;5029857;28;20030;-62
2022/09/18 00:10:47;;;;;;;0.10;0.10;;;;;;;;;;5029962;28;20042;-63
2022/09/18 00:13:13;;;;;;;0.13;0.13;;;;;;;;;;5029853;28;20041;-62
2022/09/18 00:15:38;;;;;;;0.20;0.17;;;;;;;;;;5029718;28;20041;-59
2022/09/18 00:18:04;;;;;;;0.20;0.20;;;;;;;;;;5029723;28;20417;-58
2022/09/18 00:20:31;;;;;;;0.10;0.10;;;;;;;;;;5029701;28;20045;-62
2022/09/18 00:22:57;;;;;;;0.32;0.22;;;;;;;;;;5029674;28;20085;-59
2022/09/18 00:25:22;;;;;;;0.10;0.10;;;;;;;;;;5029575;28;20070;-58
2022/09/18 00:27:48;;;;;;;0.10;0.10;;;;;;;;;;5029774;28;20284;-62
2022/09/18 00:30:13;;;;;;;0.10;0.10;;;;;;;;;;5029522;28;20280;-59
2022/09/18 00:32:38;;;;;;;0.20;0.07;;;;;;;;;;5029624;28;20437;-63
2022/09/18 00:35:04;;;;;;;0.20;0.20;;;;;;;;;;5029359;28;20367;-59
2022/09/18 00:37:29;;;;;;;0.10;0.10;;;;;;;;;;5029320;28;20401;-63
2022/09/18 00:39:54;;;;;;;0.00;0.00;;;;;;;;;;5029375;28;20430;-59
2022/09/18 00:42:20;;;;;;;0.37;0.20;;;;;;;;;;5029578;28;20497;-58
2022/09/18 00:44:45;;;;;;;0.10;0.10;;;;;;;;;;5029649;28;20041;-63
2022/09/18 00:47:11;;;;;;;0.10;0.10;;;;;;;;;;5029197;28;20040;-63
2022/09/18 00:49:38;;;;;;;0.30;0.20;;;;;;;;;;5029360;28;20044;-59
2022/09/18 00:52:03;;;;;;;0.10;0.10;;;;;;;;;;5029121;28;20033;-63
2022/09/18 00:54:40;;;;;;;0.30;0.30;;;;;;;;;;5028965;28;20041;-62
2022/09/18 00:57:15;;;;;;;0.20;0.20;;;;;;;;;;5024436;28;20497;-59
2022/09/18 00:59:42;;;;;;;0.30;0.22;;;;;;;;;;5043157;28;20041;-59
2022/09/18 01:02:07;;;;;;;0.10;0.10;;;;;;;;;;5036463;28;20044;-62
2022/09/18 01:04:32;;;;;;;0.10;0.10;;;;;;;;;;5029037;28;20041;-59
2022/09/18 01:07:16;;;;;;;0.10;0.10;;;;;;;;;;5031504;28;20687;-58
2022/09/18 01:09:47;;;;;;;0.20;0.20;;;;;;;;;;5030824;28;20033;-62
2022/09/18 01:12:15;;;;;;;0.22;0.10;;;;;;;;;;5028241;28;20057;-62
2022/09/18 01:14:41;;;;;;;0.10;0.10;;;;;;;;;;5028584;28;20067;-59
2022/09/18 01:17:16;;;;;;;0.10;0.10;;;;;;;;;;5028879;28;20124;-62
2022/09/18 01:19:51;;;;;;;0.30;0.20;;;;;;;;;;5028705;28;20049;-58
2022/09/18 01:22:19;;;;;;;0.20;0.17;;;;;;;;;;5028661;28;20037;-62
2022/09/18 01:24:44;;;;;;;0.10;0.10;;;;;;;;;;5028512;28;20053;-58
2022/09/18 01:27:11;;;;;;;0.30;0.30;;;;;;;;;;5027636;28;20037;-62
2022/09/18 01:29:47;;;;;;;0.20;0.20;;;;;;;;;;5028793;28;20128;-62
2022/09/18 01:32:15;;;;;;;0.17;0.17;;;;;;;;;;5027317;28;20387;-62
2022/09/18 01:34:45;;;;;;;0.20;0.20;;;;;;;;;;5028780;28;20045;-58
2022/09/18 01:37:13;;;;;;;0.10;0.10;;;;;;;;;;5042232;28;20046;-59
2022/09/18 01:39:50;;;;;;;0.10;0.10;;;;;;;;;;5028510;28;20060;-58
2022/09/18 01:42:17;;;;;;;0.13;0.13;;;;;;;;;;5042193;28;20147;-62
2022/09/18 01:44:43;;;;;;;0.30;0.20;;;;;;;;;;5028791;28;20045;-62
2022/09/18 01:47:10;;;;;;;0.10;0.10;;;;;;;;;;5028449;28;20140;-58
2022/09/18 01:49:37;;;;;;;0.20;0.20;;;;;;;;;;5028497;28;20059;-63
2022/09/18 01:52:10;;;;;;;0.10;0.10;;;;;;;;;;5028303;28;20046;-59
2022/09/18 01:54:37;;;;;;;0.15;0.15;;;;;;;;;;5028519;28;20402;-58
2022/09/18 01:57:36;;;;;;;0.22;0.20;;;;;;;;;;5027976;28;20056;-59
2022/09/18 02:00:05;;;;;;;0.20;0.20;;;;;;;;;;5037719;28;20132;-62
2022/09/18 02:02:43;;;;;;;0.25;0.25;;;;;;;;;;5028132;28;20056;-59
2022/09/18 02:05:10;;;;;;;0.10;0.10;;;;;;;;;;5028543;28;20505;-62
2022/09/18 02:08:02;;;;;;;0.00;0.00;;;;;;;;;;5028039;28;20049;-62
2022/09/18 02:10:30;;;;;;;0.10;0.10;;;;;;;;;;5028985;28;20046;-58
2022/09/18 02:12:55;;;;;;;0.20;0.20;;;;;;;;;;5028258;28;20493;-58
2022/09/18 02:15:23;;;;;;;0.10;0.10;;;;;;;;;;5027692;28;20076;-59
2022/09/18 02:17:52;;;;;;;0.20;0.20;;;;;;;;;;5027974;28;20041;-62
2022/09/18 02:20:23;;;;;;;0.28;0.20;;;;;;;;;;5028047;28;20037;-62
2022/09/18 02:23:08;;;;;;;0.28;0.20;;;;;;;;;;5028475;28;20128;-62
2022/09/18 02:25:36;;;;;;;0.25;0.20;;;;;;;;;;5037660;28;20044;-59
2022/09/18 02:28:03;;;;;;;0.15;0.15;;;;;;;;;;5048476;28;20131;-59
2022/09/18 02:30:29;;;;;;;0.50;0.22;;;;;;;;;;5046246;28;20056;-59
2022/09/18 02:32:55;;;;;;;0.20;0.20;;;;;;;;;;5048972;28;20048;-62
2022/09/18 02:35:21;;;;;;;0.20;0.10;;;;;;;;;;5043683;28;20544;-62
2022/09/18 02:37:56;;;;;;;0.20;0.10;;;;;;;;;;5035959;28;20459;-58
2022/09/18 02:40:37;;;;;;;0.15;0.15;;;;;;;;;;5048712;28;20041;-62
2022/09/18 02:43:08;;;;;;;0.10;0.10;;;;;;;;;;5048807;28;20057;-58
2022/09/18 02:45:57;;;;;;;0.10;0.10;;;;;;;;;;5048703;28;20044;-58
2022/09/18 02:48:41;;;;;;;0.10;0.10;;;;;;;;;;5048170;28;20045;-62
2022/09/18 02:51:06;;;;;;;0.32;0.20;;;;;;;;;;5048503;28;20865;-58
2022/09/18 02:53:32;;;;;;;0.20;0.20;;;;;;;;;;5048431;28;20041;-59
2022/09/18 02:56:03;;;;;;;0.27;0.10;;;;;;;;;;5048993;28;20048;-62
2022/09/18 02:58:40;;;;;;;0.20;0.20;;;;;;;;;;5034525;28;20044;-62
2022/09/18 03:01:06;;;;;;;0.20;0.20;;;;;;;;;;5031172;28;20509;-59
2022/09/18 03:03:32;;;;;;;0.32;0.20;;;;;;;;;;5032182;28;20045;-59
2022/09/18 03:05:58;;;;;;;0.10;0.10;;;;;;;;;;5043472;28;20103;-62
2022/09/18 03:08:23;;;;;;;0.13;0.10;;;;;;;;;;5030596;28;20037;-62
2022/09/18 03:10:49;;;;;;;0.22;0.10;;;;;;;;;;5030719;28;20356;-62
2022/09/18 03:13:14;;;;;;;0.23;0.10;;;;;;;;;;5030746;28;20044;-58
2022/09/18 03:15:39;;;;;;;0.20;0.20;;;;;;;;;;5030538;28;20656;-62
2022/09/18 03:18:05;;;;;;;0.10;0.10;;;;;;;;;;5030760;28;20364;-62
2022/09/18 03:20:30;;;;;;;0.40;0.30;;;;;;;;;;5030433;28;20049;-62
2022/09/18 03:22:55;;;;;;;0.10;0.10;;;;;;;;;;5030861;28;20771;-62
2022/09/18 03:25:20;;;;;;;0.10;0.10;;;;;;;;;;5030815;28;20413;-58
2022/09/18 03:27:46;;;;;;;0.10;0.10;;;;;;;;;;5030714;28;20092;-62
2022/09/18 03:30:11;;;;;;;0.10;0.10;;;;;;;;;;5030404;28;20069;-62
2022/09/18 03:32:36;;;;;;;0.20;0.20;;;;;;;;;;5030499;28;20357;-62
2022/09/18 03:35:01;;;;;;;0.27;0.27;;;;;;;;;;5029833;28;20395;-59
2022/09/18 03:37:27;;;;;;;0.10;0.10;;;;;;;;;;5030324;28;20287;-62
2022/09/18 03:39:52;;;;;;;0.10;0.10;;;;;;;;;;5044217;28;20050;-62
2022/09/18 03:42:17;;;;;;;0.20;0.20;;;;;;;;;;5030509;28;20041;-62
2022/09/18 03:44:43;;;;;;;0.50;0.20;;;;;;;;;;5030223;28;20041;-62
2022/09/18 03:47:08;;;;;;;0.15;0.15;;;;;;;;;;5030271;28;20367;-59
2022/09/18 03:49:34;;;;;;;0.20;0.20;;;;;;;;;;5029747;28;20103;-58
2022/09/18 03:51:59;;;;;;;0.13;0.13;;;;;;;;;;5030386;28;20506;-59
2022/09/18 03:54:25;;;;;;;0.30;0.30;;;;;;;;;;5030263;28;20050;-58
2022/09/18 03:56:50;;;;;;;0.20;0.20;;;;;;;;;;5030164;28;20041;-59
2022/09/18 03:59:15;;;;;;;0.20;0.20;;;;;;;;;;5029786;28;20460;-62
2022/09/18 04:01:41;;;;;;;0.15;0.15;;;;;;;;;;5029938;28;20051;-59
2022/09/18 04:04:06;;;;;;;0.20;0.20;;;;;;;;;;5029962;28;20044;-59
2022/09/18 04:06:31;;;;;;;0.40;0.20;;;;;;;;;;5029732;28;20467;-59
2022/09/18 04:08:56;;;;;;;0.20;0.20;;;;;;;;;;5029972;28;20093;-63
2022/09/18 04:11:21;;;;;;;0.10;0.10;;;;;;;;;;5029890;28;20276;-62
2022/09/18 04:13:47;;;;;;;0.10;0.10;;;;;;;;;;5029849;28;20480;-62
2022/09/18 04:16:12;;;;;;;0.10;0.10;;;;;;;;;;5029882;28;20048;-62
2022/09/18 04:18:37;;;;;;;0.10;0.10;;;;;;;;;;5029618;28;20764;-58
2022/09/18 04:21:03;;;;;;;0.20;0.20;;;;;;;;;;5029455;28;20299;-63
2022/09/18 04:23:28;;;;;;;0.10;0.10;;;;;;;;;;5031660;28;20351;-63
2022/09/18 04:25:53;;;;;;;0.20;0.20;;;;;;;;;;5041721;28;20764;-59
2022/09/18 04:28:19;;;;;;;0.13;0.13;;;;;;;;;;5029559;28;20497;-58
2022/09/18 04:30:45;;;;;;;0.20;0.20;;;;;;;;;;5029336;28;20505;-58
2022/09/18 04:33:10;;;;;;;0.22;0.20;;;;;;;;;;5029662;28;20536;-62
2022/09/18 04:35:35;;;;;;;0.30;0.20;;;;;;;;;;5029551;28;20598;-58
2022/09/18 04:38:01;;;;;;;0.20;0.20;;;;;;;;;;5033580;28;20064;-58
2022/09/18 04:40:26;;;;;;;0.30;0.28;;;;;;;;;;5049056;28;20430;-59
2022/09/18 04:42:51;;;;;;;0.23;0.20;;;;;;;;;;5032018;28;20052;-62
2022/09/18 04:45:17;;;;;;;0.20;0.20;;;;;;;;;;5029568;28;20297;-58
2022/09/18 04:47:43;;;;;;;0.27;0.27;;;;;;;;;;5028381;28;20041;-63
2022/09/18 04:50:09;;;;;;;0.10;0.10;;;;;;;;;;5035096;28;20276;-62
2022/09/18 04:52:35;;;;;;;0.25;0.20;;;;;;;;;;5035748;28;20517;-59
2022/09/18 04:55:00;;;;;;;0.17;0.17;;;;;;;;;;5028472;28;20079;-58
2022/09/18 04:57:26;;;;;;;0.30;0.30;;;;;;;;;;5029138;28;20387;-58
2022/09/18 04:59:51;;;;;;;0.20;0.17;;;;;;;;;;5028703;28;20041;-62
2022/09/18 05:02:17;;;;;;;0.38;0.20;;;;;;;;;;5029070;28;20042;-63
2022/09/18 05:04:42;;;;;;;0.22;0.20;;;;;;;;;;5029100;28;20055;-58
2022/09/18 05:07:07;;;;;;;0.70;0.20;;;;;;;;;;5028824;28;20041;-58
2022/09/18 05:09:33;;;;;;;0.13;0.10;;;;;;;;;;5029399;28;20283;-58
2022/09/18 05:11:58;;;;;;;0.20;0.20;;;;;;;;;;5028856;28;20390;-62
2022/09/18 05:14:24;;;;;;;0.20;0.10;;;;;;;;;;5028930;28;20409;-62
2022/09/18 05:16:49;;;;;;;0.20;0.20;;;;;;;;;;5028895;28;20057;-62
2022/09/18 05:19:14;;;;;;;0.30;0.20;;;;;;;;;;5029005;28;20091;-63
2022/09/18 05:21:39;;;;;;;0.40;0.30;;;;;;;;;;5028801;28;20132;-62
2022/09/18 05:24:04;;;;;;;0.13;0.10;;;;;;;;;;5028623;28;20037;-62
2022/09/18 05:26:30;;;;;;;0.37;0.20;;;;;;;;;;5029071;28;20395;-58
2022/09/18 05:28:55;;;;;;;0.13;0.13;;;;;;;;;;5028725;28;20312;-58
2022/09/18 05:31:20;;;;;;;0.10;0.10;;;;;;;;;;5028799;28;20333;-63
2022/09/18 05:33:46;;;;;;;0.30;0.10;;;;;;;;;;5028793;28;20037;-58
2022/09/18 05:36:11;;;;;;;0.30;0.10;;;;;;;;;;5028884;28;20042;-59
2022/09/18 05:38:36;;;;;;;0.10;0.10;;;;;;;;;;5040017;28;20037;-59
2022/09/18 05:41:02;;;;;;;0.25;0.20;;;;;;;;;;5032934;28;20399;-62
2022/09/18 05:43:28;;;;;;;0.10;0.10;;;;;;;;;;5028467;28;20034;-58
2022/09/18 05:45:53;;;;;;;0.20;0.20;;;;;;;;;;5028736;28;20509;-58
2022/09/18 05:48:19;;;;;;;0.22;0.20;;;;;;;;;;5028533;28;20130;-58
2022/09/18 05:50:44;;;;;;;0.20;0.20;;;;;;;;;;5028464;28;20053;-58
2022/09/18 05:53:11;;;;;;;0.10;0.10;;;;;;;;;;5028445;28;20041;-58
2022/09/18 05:55:36;;;;;;;0.10;0.10;;;;;;;;;;5028541;28;20067;-59
2022/09/18 05:58:02;;;;;;;0.30;0.25;;;;;;;;;;5029217;28;20132;-62
2022/09/18 06:00:29;;;;;;;0.20;0.20;;;;;;;;;;5031764;28;20069;-58
2022/09/18 06:02:55;;;;;;;0.38;0.30;;;;;;;;;;5031472;28;20057;-59
2022/09/18 06:05:21;;;;;;;0.17;0.17;;;;;;;;;;5031778;28;20046;-58
2022/09/18 06:07:47;;;;;;;0.17;0.15;;;;;;;;;;5036027;28;20045;-59
2022/09/18 06:10:12;;;;;;;0.10;0.10;;;;;;;;;;5042457;28;20053;-58
2022/09/18 06:12:37;;;;;;;0.20;0.20;;;;;;;;;;5042196;28;20048;-59
2022/09/18 06:15:03;;;;;;;0.20;0.10;;;;;;;;;;5036094;28;20175;-59
2022/09/18 06:17:28;;;;;;;0.28;0.20;;;;;;;;;;5046321;28;20508;-58
2022/09/18 06:19:53;;;;;;;0.10;0.10;;;;;;;;;;5043460;28;20049;-59
2022/09/18 06:22:18;;;;;;;0.27;0.20;;;;;;;;;;5031511;28;20045;-58
2022/09/18 06:24:44;;;;;;;0.20;0.20;;;;;;;;;;5031480;28;20705;-62
2022/09/18 06:27:09;;;;;;;0.30;0.13;;;;;;;;;;5031593;28;20049;-59
2022/09/18 06:29:34;;;;;;;0.30;0.30;;;;;;;;;;5031096;28;20124;-62
2022/09/18 06:32:00;;;;;;;0.20;0.20;;;;;;;;;;5031418;28;20099;-58
2022/09/18 06:34:25;;;;;;;0.20;0.20;;;;;;;;;;5031489;28;20034;-63
2022/09/18 06:36:50;;;;;;;0.30;0.23;;;;;;;;;;5031375;28;20038;-62
2022/09/18 06:39:15;;;;;;;0.40;0.20;;;;;;;;;;5043808;28;20045;-62
2022/09/18 06:41:41;;;;;;;0.30;0.20;;;;;;;;;;5031101;28;20409;-63
2022/09/18 06:44:07;;;;;;;0.38;0.20;;;;;;;;;;5031315;28;20049;-59
2022/09/18 06:46:32;;;;;;;0.45;0.30;;;;;;;;;;5031137;28;20383;-58
2022/09/18 06:48:57;;;;;;;0.10;0.10;;;;;;;;;;5031214;28;20048;-63
2022/09/18 06:51:23;;;;;;;0.13;0.13;;;;;;;;;;5031040;28;20041;-58
2022/09/18 06:53:48;;;;;;;0.27;0.20;;;;;;;;;;5031133;28;20072;-62
2022/09/18 06:56:13;;;;;;;0.30;0.30;;;;;;;;;;5031305;28;20049;-58
2022/09/18 06:58:38;;;;;;;0.20;0.20;;;;;;;;;;5031367;28;20077;-58
2022/09/18 07:01:04;;;;;;;0.20;0.20;;;;;;;;;;5031401;28;20312;-59
2022/09/18 07:03:29;;;;;;;0.20;0.20;;;;;;;;;;5030909;28;20049;-62
2022/09/18 07:05:54;;;;;;;0.40;0.30;;;;;;;;;;5030933;28;20061;-59
2022/09/18 07:08:19;;;;;;;0.37;0.30;;;;;;;;;;5030684;28;20288;-62
2022/09/18 07:10:44;;;;;;;0.20;0.20;;;;;;;;;;5030052;28;20052;-62
2022/09/18 07:13:10;;;;;;;0.33;0.20;;;;;;;;;;5030728;28;20045;-63
2022/09/18 07:15:35;;;;;;;0.38;0.30;;;;;;;;;;5030843;28;20495;-58
2022/09/18 07:18:02;;;;;;;0.15;0.13;;;;;;;;;;5030761;28;20056;-58
2022/09/18 07:20:28;;;;;;;0.20;0.20;;;;;;;;;;5030610;28;20628;-62
2022/09/18 07:22:58;;;;;;;0.22;0.20;;;;;;;;;;5030323;28;20056;-59
2022/09/18 07:25:25;;;;;;;0.20;0.20;;;;;;;;;;5030397;28;20073;-58
2022/09/18 07:27:50;;;;;;;0.20;0.20;;;;;;;;;;5030638;28;20545;-58
2022/09/18 07:30:16;;;;;;;0.40;0.30;;;;;;;;;;5030487;28;20187;-62
2022/09/18 07:32:42;;;;;;;0.15;0.15;;;;;;;;;;5030421;28;20037;-62
2022/09/18 07:35:07;;;;;;;0.20;0.17;;;;;;;;;;5030620;28;20596;-63
2022/09/18 07:37:33;;;;;;;0.15;0.10;;;;;;;;;;5030867;28;20413;-63
2022/09/18 07:39:58;;;;;;;0.20;0.20;;;;;;;;;;5044089;28;20077;-62
2022/09/18 07:42:23;;;;;;;0.23;0.20;;;;;;;;;;5030521;28;20417;-63
2022/09/18 07:44:49;;;;;;;0.20;0.20;;;;;;;;;;5030318;28;20049;-63
2022/09/18 07:47:14;;;;;;;0.20;0.17;;;;;;;;;;5030505;28;20424;-59
2022/09/18 07:49:39;;;;;;;0.30;0.28;;;;;;;;;;5030401;28;20041;-58
2022/09/18 07:52:05;;;;;;;0.20;0.20;;;;;;;;;;5030268;28;20088;-58
2022/09/18 07:54:30;;;;;;;0.20;0.20;;;;;;;;;;5031867;28;20053;-59
2022/09/18 07:56:55;;;;;;;0.20;0.20;;;;;;;;;;5041753;28;20284;-59
2022/09/18 07:59:20;;;;;;;0.30;0.13;;;;;;;;;;5030034;28;20298;-58
2022/09/18 08:01:46;;;;;;;0.10;0.10;;;;;;;;;;5030072;28;20819;-59
2022/09/18 08:04:11;;;;;;;0.40;0.20;;;;;;;;;;5043736;28;20037;-62
2022/09/18 08:06:36;;;;;;;0.43;0.30;;;;;;;;;;5030024;28;20065;-62
2022/09/18 08:09:02;;;;;;;0.20;0.20;;;;;;;;;;5030037;28;20092;-63
2022/09/18 08:11:27;;;;;;;0.20;0.20;;;;;;;;;;5029953;28;20284;-58
2022/09/18 08:13:52;;;;;;;0.10;0.10;;;;;;;;;;5029549;28;20569;-63
2022/09/18 08:16:17;;;;;;;0.10;0.10;;;;;;;;;;5029351;28;20136;-62
2022/09/18 08:18:43;;;;;;;0.20;0.20;;;;;;;;;;5036518;28;20276;-62
2022/09/18 08:21:08;;;;;;;0.20;0.20;;;;;;;;;;5029809;28;20582;-62
2022/09/18 08:23:34;;;;;;;0.27;0.20;;;;;;;;;;5029419;28;20041;-62
2022/09/18 08:25:59;;;;;;;0.20;0.20;;;;;;;;;;5029960;28;20041;-62
2022/09/18 08:28:25;;;;;;;0.15;0.15;;;;;;;;;;5029668;28;20045;-62
2022/09/18 08:30:50;;;;;;;0.20;0.20;;;;;;;;;;5029731;28;20053;-63
2022/09/18 08:33:15;;;;;;;0.13;0.13;;;;;;;;;;5029478;28;20288;-58
2022/09/18 08:35:41;;;;;;;0.30;0.30;;;;;;;;;;5029521;28;20041;-59
2022/09/18 08:38:09;;;;;;;0.20;0.20;;;;;;;;;;5034373;28;20310;-59
2022/09/18 08:40:34;;;;;;;0.77;0.30;;;;;;;;;;5038116;28;20038;-62
2022/09/18 08:43:10;;;;;;;0.08;0.08;;;;;;;;;;5029451;28;20048;-62
2022/09/18 08:45:38;;;;;;;0.13;0.13;;;;;;;;;;5029281;28;20056;-62
2022/09/18 08:48:05;;;;;;;0.20;0.20;;;;;;;;;;5029696;28;20513;-58
2022/09/18 08:50:33;;;;;;;0.20;0.20;;;;;;;;;;5029648;28;20048;-62
2022/09/18 08:53:02;;;;;;;0.20;0.20;;;;;;;;;;5029376;28;20045;-58
2022/09/18 08:55:32;;;;;;;0.20;0.20;;;;;;;;;;5029179;28;20100;-63
2022/09/18 08:58:04;;;;;;;1.45;0.30;;;;;;;;;;5029162;28;20045;-63
2022/09/18 09:00:48;;;;;;;0.20;0.20;;;;;;;;;;5029332;28;20128;-58
2022/09/18 09:03:22;;;;;;;0.25;0.22;;;;;;;;;;5029125;28;20579;-58
2022/09/18 09:05:50;;;;;;;0.20;0.20;;;;;;;;;;5028989;28;20559;-58
2022/09/18 09:08:28;;;;;;;0.15;0.10;;;;;;;;;;5027026;28;20049;-59
2022/09/18 09:11:13;;;;;;;0.20;0.20;;;;;;;;;;5029106;28;20046;-58
2022/09/18 09:13:39;;;;;;;0.13;0.13;;;;;;;;;;5028571;28;20231;-62
2022/09/18 09:16:15;;;;;;;0.20;0.20;;;;;;;;;;5028745;28;20533;-58
2022/09/18 09:18:47;;;;;;;0.20;0.20;;;;;;;;;;5028870;28;20498;-63
2022/09/18 09:21:22;;;;;;;0.22;0.22;;;;;;;;;;5028984;28;20494;-59
2022/09/18 09:23:57;;;;;;;0.35;0.20;;;;;;;;;;5028712;28;20038;-63
2022/09/18 09:26:24;;;;;;;0.45;0.30;;;;;;;;;;5028772;28;20047;-63
2022/09/18 09:29:15;;;;;;;0.10;0.10;;;;;;;;;;5028631;28;20513;-63
2022/09/18 09:31:43;;;;;;;0.28;0.20;;;;;;;;;;5020126;28;20126;-61
2022/09/18 09:34:15;;;;;;;0.20;0.20;;;;;;;;;;5028130;28;20042;-59
2022/09/18 09:36:40;;;;;;;0.30;0.22;;;;;;;;;;5028721;28;20045;-62
2022/09/18 09:39:09;;;;;;;0.20;0.20;;;;;;;;;;5041426;28;20121;-63
2022/09/18 09:41:52;;;;;;;0.20;0.20;;;;;;;;;;5029144;28;20132;-63
2022/09/18 09:44:18;;;;;;;0.40;0.30;;;;;;;;;;5028771;28;20049;-62
2022/09/18 09:46:44;;;;;;;0.20;0.20;;;;;;;;;;5016220;28;20041;-58
2022/09/18 09:49:21;;;;;;;0.27;0.10;;;;;;;;;;5028679;28;20050;-63
2022/09/18 09:51:49;;;;;;;0.20;0.20;;;;;;;;;;5028360;28;20350;-63
2022/09/18 09:54:15;;;;;;;0.20;0.20;;;;;;;;;;5028486;28;20083;-58
2022/09/18 09:57:18;;;;;;;0.20;0.20;;;;;;;;;;5028349;28;20033;-63
2022/09/18 09:59:43;;;;;;;0.40;0.20;;;;;;;;;;5005942;28;20425;-63
2022/09/18 10:02:28;;;;;;;0.57;0.20;;;;;;;;;;5006408;28;20046;-63
2022/09/18 10:04:59;;;;;;;0.28;0.20;;;;;;;;;;5005952;28;21075;-63
2022/09/18 10:07:29;;;;;;;0.20;0.20;;;;;;;;;;5006124;28;20049;-58
2022/09/18 10:10:13;;;;;;;0.20;0.20;;;;;;;;;;5005974;28;20046;-58
2022/09/18 10:12:38;;;;;;;0.30;0.20;;;;;;;;;;5005986;28;20081;-59
2022/09/18 10:15:18;;;;;;;0.50;0.30;;;;;;;;;;5005890;28;20191;-58
2022/09/18 10:17:44;;;;;;;0.28;0.28;;;;;;;;;;5006270;28;20046;-62
2022/09/18 10:20:14;;;;;;;0.20;0.20;;;;;;;;;;5006037;28;20148;-63
2022/09/18 10:22:47;;;;;;;0.28;0.28;;;;;;;;;;5005849;28;20091;-58
2022/09/18 10:25:26;;;;;;;0.52;0.20;;;;;;;;;;5005524;28;20046;-63
2022/09/18 10:27:51;;;;;;;0.22;0.22;;;;;;;;;;5005957;28;20069;-59
2022/09/18 10:30:16;;;;;;;0.23;0.23;;;;;;;;;;5017868;28;20038;-58
2022/09/18 10:32:41;;;;;;;0.38;0.30;;;;;;;;;;5026860;28;20296;-59
2022/09/18 10:35:34;;;;;;;0.17;0.17;;;;;;;;;;5028013;28;20041;-59
2022/09/18 10:38:00;;;;;;;;;;;;;;;;;;5032428;28;20409;-62
2022/09/18 10:40:33;;;;;;;0.30;0.20;;;;;;;;;;5037928;28;20011;-59
2022/09/18 10:42:58;;;;;;;0.10;0.10;;;;;;;;;;5027992;28;20037;-58
2022/09/18 10:45:28;;;;;;;0.30;0.30;;;;;;;;;;5029300;28;20410;-63
2022/09/18 10:48:12;;;;;;;0.20;0.20;;;;;;;;;;5031089;28;20091;-63
2022/09/18 10:50:38;;;;;;;0.28;0.20;;;;;;;;;;5031556;28;20033;-63
2022/09/18 10:53:14;;;;;;;0.28;0.28;;;;;;;;;;5031368;28;20045;-63
2022/09/18 10:55:47;;;;;;;0.13;0.10;;;;;;;;;;5030878;28;20391;-63
2022/09/18 10:58:13;;;;;;;0.20;0.20;;;;;;;;;;5030895;28;20464;-58
2022/09/18 11:00:43;;;;;;;0.20;0.20;;;;;;;;;;5031103;28;20045;-58
2022/09/18 11:03:27;;;;;;;0.30;0.20;;;;;;;;;;5030769;28;20429;-58
2022/09/18 11:06:02;;;;;;;0.10;0.10;;;;;;;;;;5030588;28;20082;-58
2022/09/18 11:08:32;;;;;;;0.40;0.30;;;;;;;;;;5030837;28;20045;-58
2022/09/18 11:11:02;;;;;;;0.45;0.25;;;;;;;;;;5031041;28;20038;-58
2022/09/18 11:13:29;;;;;;;0.17;0.17;;;;;;;;;;5030833;28;20037;-58
2022/09/18 11:15:55;;;;;;;0.32;0.30;;;;;;;;;;5030820;28;20417;-63
2022/09/18 11:18:22;;;;;;;0.20;0.20;;;;;;;;;;5030665;28;20479;-63
2022/09/18 11:20:48;;;;;;;0.25;0.20;;;;;;;;;;5030795;28;20053;-63
2022/09/18 11:23:27;;;;;;;0.30;0.20;;;;;;;;;;5030582;28;20083;-63
2022/09/18 11:26:10;;;;;;;0.20;0.20;;;;;;;;;;5044407;28;20049;-59
2022/09/18 11:28:35;;;;;;;;;;;;;;;;;;5031163;28;20053;-63
2022/09/18 11:31:04;;;;;;;0.20;0.20;;;;;;;;;;5030722;28;19933;-61
2022/09/18 11:33:32;;;;;;;0.28;0.28;;;;;;;;;;5030642;28;20060;-63
2022/09/18 11:36:04;;;;;;;0.20;0.20;;;;;;;;;;5030528;28;20041;-58
2022/09/18 11:38:31;;;;;;;0.30;0.30;;;;;;;;;;5038328;28;20459;-63
2022/09/18 11:40:58;;;;;;;0.25;0.20;;;;;;;;;;5035843;28;20053;-63
2022/09/18 11:43:28;;;;;;;0.20;0.20;;;;;;;;;;5030355;28;20041;-59
2022/09/18 11:45:56;;;;;;;0.20;0.20;;;;;;;;;;5030211;28;20560;-59
2022/09/18 11:48:40;;;;;;;0.20;0.20;;;;;;;;;;5030183;28;20453;-58
2022/09/18 11:51:18;;;;;;;0.50;0.40;;;;;;;;;;5030351;28;20042;-59
2022/09/18 11:53:46;;;;;;;0.20;0.20;;;;;;;;;;5030446;28;20493;-61
2022/09/18 11:56:15;;;;;;;0.15;0.10;;;;;;;;;;5029757;28;20046;-58
2022/09/18 11:58:42;;;;;;;0.47;0.30;;;;;;;;;;5030340;28;20427;-59
2022/09/18 12:01:16;;;;;;;0.90;0.45;;;;;;;;;;5030033;28;20053;-63
2022/09/18 12:03:48;;;;;;;0.40;0.30;;;;;;;;;;5030020;28;20140;-59
2022/09/18 12:06:36;;;;;;;0.30;0.30;;;;;;;;;;5030190;28;20041;-59
2022/09/18 12:09:10;;;;;;;0.30;0.20;;;;;;;;;;5037363;28;20140;-58
2022/09/18 12:11:59;;;;;;;0.10;0.10;;;;;;;;;;5035209;28;20045;-62
2022/09/18 12:14:33;;;;;;;0.20;0.20;;;;;;;;;;5030004;28;20041;-63
2022/09/18 12:17:10;;;;;;;0.45;0.30;;;;;;;;;;5029498;28;20453;-58
2022/09/18 12:19:40;;;;;;;0.20;0.20;;;;;;;;;;5030151;28;20041;-58
2022/09/18 12:22:25;;;;;;;0.10;0.10;;;;;;;;;;5029946;28;20037;-59
2022/09/18 12:24:50;;;;;;;0.20;0.20;;;;;;;;;;5030077;28;20090;-63
2022/09/18 12:27:34;;;;;;;0.17;0.17;;;;;;;;;;5029575;28;20136;-63
2022/09/18 12:30:02;;;;;;;0.35;0.30;;;;;;;;;;5029779;28;20052;-62
2022/09/18 12:32:27;;;;;;;0.20;0.20;;;;;;;;;;5029429;28;20033;-62
2022/09/18 12:35:03;;;;;;;0.50;0.20;;;;;;;;;;5029872;28;20053;-58
2022/09/18 12:37:55;;;;;;;0.22;0.22;;;;;;;;;;5029196;28;20038;-58
2022/09/18 12:40:26;;;;;;;0.25;0.25;;;;;;;;;;5028064;28;20570;-58
2022/09/18 12:42:58;;;;;;;0.20;0.20;;;;;;;;;;5029548;28;20068;-59
2022/09/18 12:45:29;;;;;;;0.80;0.40;;;;;;;;;;5029642;28;20087;-58
2022/09/18 12:48:12;;;;;;;0.38;0.38;;;;;;;;;;5029214;28;20041;-59
2022/09/18 12:50:39;;;;;;;0.40;0.17;;;;;;;;;;5029832;28;20041;-62
2022/09/18 12:53:10;;;;;;;0.20;0.20;;;;;;;;;;5029290;28;20096;-62
2022/09/18 12:55:36;;;;;;;0.10;0.10;;;;;;;;;;5029377;28;20041;-59
2022/09/18 12:58:07;;;;;;;0.22;0.20;;;;;;;;;;5028880;28;20053;-59
2022/09/18 13:00:34;;;;;;;0.30;0.20;;;;;;;;;;5029189;28;20045;-59
2022/09/18 13:03:02;;;;;;;0.30;0.30;;;;;;;;;;5029172;28;20133;-60
2022/09/18 13:05:29;;;;;;;0.50;0.40;;;;;;;;;;5042842;28;20041;-62
2022/09/18 13:07:59;;;;;;;0.13;0.13;;;;;;;;;;5028027;28;20045;-58
2022/09/18 13:10:34;;;;;;;0.15;0.15;;;;;;;;;;5029070;28;20433;-58
2022/09/18 13:13:03;;;;;;;0.40;0.20;;;;;;;;;;5029086;28;20041;-59
2022/09/18 13:15:32;;;;;;;0.55;0.32;;;;;;;;;;5028717;28;20045;-59
2022/09/18 13:18:16;;;;;;;0.22;0.22;;;;;;;;;;5028975;28;20045;-59
2022/09/18 13:20:43;;;;;;;0.20;0.20;;;;;;;;;;5028907;28;20049;-62
2022/09/18 13:23:16;;;;;;;0.30;0.20;;;;;;;;;;5028583;28;20042;-62
2022/09/18 13:25:43;;;;;;;0.10;0.10;;;;;;;;;;5026069;28;20409;-58
2022/09/18 13:28:12;;;;;;;0.40;0.20;;;;;;;;;;5028862;28;20049;-59
2022/09/18 13:30:37;;;;;;;0.20;0.20;;;;;;;;;;5028733;28;20073;-59
2022/09/18 13:33:03;;;;;;;0.30;0.20;;;;;;;;;;5028721;28;20096;-58
2022/09/18 13:35:31;;;;;;;0.35;0.30;;;;;;;;;;5028328;28;20083;-59
2022/09/18 13:38:11;;;;;;;0.20;0.20;;;;;;;;;;5031997;28;20064;-58
2022/09/18 13:40:41;;;;;;;0.50;0.35;;;;;;;;;;5036825;28;20053;-62
2022/09/18 13:43:14;;;;;;;0.30;0.30;;;;;;;;;;5028603;28;20076;-62
2022/09/18 13:45:39;;;;;;;0.20;0.20;;;;;;;;;;5029049;28;20076;-62
2022/09/18 13:48:10;;;;;;;0.20;0.20;;;;;;;;;;5028619;28;20073;-59
2022/09/18 13:50:36;;;;;;;0.20;0.20;;;;;;;;;;5028457;28;20809;-62
2022/09/18 13:53:03;;;;;;;0.30;0.20;;;;;;;;;;5028362;28;20080;-58
2022/09/18 13:55:58;;;;;;;0.30;0.30;;;;;;;;;;5028565;28;20033;-62
2022/09/18 13:58:30;;;;;;;0.65;0.30;;;;;;;;;;5035013;28;20038;-62
2022/09/18 14:00:56;;;;;;;0.22;0.20;;;;;;;;;;5028416;28;20405;-58
2022/09/18 14:03:24;;;;;;;0.20;0.20;;;;;;;;;;5028307;28;21028;-59
2022/09/18 14:05:49;;;;;;;0.30;0.30;;;;;;;;;;5028521;28;20037;-59
2022/09/18 14:08:17;;;;;;;0.20;0.20;;;;;;;;;;5028478;28;20044;-62
2022/09/18 14:10:42;;;;;;;0.40;0.30;;;;;;;;;;5028167;28;20490;-63
2022/09/18 14:13:23;;;;;;;0.37;0.30;;;;;;;;;;5028299;28;20140;-62
2022/09/18 14:15:51;;;;;;;0.45;0.20;;;;;;;;;;5028410;28;20802;-62
2022/09/18 14:18:21;;;;;;;0.32;0.30;;;;;;;;;;5027060;28;20486;-62
2022/09/18 14:20:51;;;;;;;0.22;0.20;;;;;;;;;;5031428;28;20053;-59
2022/09/18 14:23:28;;;;;;;0.30;0.22;;;;;;;;;;5031833;28;20038;-59
2022/09/18 14:25:53;;;;;;;0.20;0.20;;;;;;;;;;5031727;28;20044;-59
2022/09/18 14:28:20;;;;;;;0.27;0.20;;;;;;;;;;5031855;28;20041;-59
2022/09/18 14:31:06;;;;;;;0.20;0.20;;;;;;;;;;5031308;28;20377;-62
2022/09/18 14:33:32;;;;;;;0.35;0.30;;;;;;;;;;5031525;28;20049;-59
2022/09/18 14:36:04;;;;;;;0.32;0.30;;;;;;;;;;5031469;28;20052;-63
2022/09/18 14:38:40;;;;;;;0.43;0.35;;;;;;;;;;5039524;28;20489;-63
2022/09/18 14:41:25;;;;;;;0.20;0.17;;;;;;;;;;5035621;28;20463;-63
2022/09/18 14:43:52;;;;;;;0.25;0.20;;;;;;;;;;5031142;28;20049;-59
2022/09/18 14:46:22;;;;;;;0.32;0.25;;;;;;;;;;5031353;28;20045;-62
2022/09/18 14:48:47;;;;;;;0.25;0.20;;;;;;;;;;5031291;28;20534;-62
2022/09/18 14:51:15;;;;;;;0.77;0.40;;;;;;;;;;5030928;28;20545;-63
2022/09/18 14:53:42;;;;;;;0.30;0.30;;;;;;;;;;5030900;28;20045;-63